Time;durP1;ratioP1;P1;durP2;ratioP2;P2;SDS_P1;SDS_P2;PMS_P1;PMS_P2;Temp;Humidity;BMP_temperature;BMP_pressure;BME280_temperature;BME280_humidity;BME280_pressure;Samples;Min_cycle;Max_cycle;Signal;HPM_P1;HPM_P2
2023/02/16 00:01:33;;;;;;;14.07;7.40;;;-2.90;99.90;;;;;;8231023;28;20093;-80
2023/02/16 00:05:34;;;;;;;16.17;7.38;;;-3.00;99.90;;;;;;8232386;28;20026;-80
2023/02/16 00:09:34;;;;;;;13.55;7.13;;;-3.10;99.90;;;;;;8230789;28;20042;-80
2023/02/16 00:13:44;;;;;;;12.98;6.18;;;-3.00;99.90;;;;;;8232456;28;20470;-80
2023/02/16 00:17:44;;;;;;;;;;;-3.10;99.90;;;;;;8231438;28;20019;-80
2023/02/16 00:21:46;;;;;;;14.30;6.75;;;-3.10;99.90;;;;;;8231210;28;20009;-80
2023/02/16 00:25:47;;;;;;;15.25;5.90;;;-3.20;99.90;;;;;;8230658;28;20027;-80
2023/02/16 00:29:47;;;;;;;12.73;6.18;;;-3.20;99.90;;;;;;8231797;28;20027;-80
2023/02/16 00:33:48;;;;;;;11.70;5.85;;;-3.30;99.90;;;;;;8232093;28;20388;-80
2023/02/16 00:37:49;;;;;;;15.07;6.80;;;-3.30;99.90;;;;;;8231146;28;20082;-80
2023/02/16 00:42:10;;;;;;;18.08;7.00;;;-3.20;99.90;;;;;;8224001;28;20499;-80
2023/02/16 00:46:10;;;;;;;12.00;6.25;;;-3.20;99.90;;;;;;8217813;28;20031;-80
2023/02/16 00:50:16;;;;;;;16.55;7.68;;;-3.30;99.90;;;;;;8230510;28;20027;-80
2023/02/16 00:54:16;;;;;;;15.23;6.15;;;-3.00;99.90;;;;;;8230469;28;20031;-80
2023/02/16 00:58:24;;;;;;;17.33;7.70;;;-3.00;99.90;;;;;;8231460;28;20090;-80
2023/02/16 01:02:24;;;;;;;10.70;6.13;;;-2.90;99.90;;;;;;8236381;28;20027;-80
2023/02/16 01:11:08;;;;;;;20.05;7.13;;;-2.90;99.90;;;;;;8169946;29;20543;-80
2023/02/16 01:15:13;;;;;;;15.23;6.57;;;-3.00;99.90;;;;;;8186120;28;20035;-81
2023/02/16 01:19:13;;;;;;;14.55;7.30;;;-3.10;99.90;;;;;;8237153;28;20057;-80
2023/02/16 01:23:14;;;;;;;17.83;7.15;;;-3.20;99.90;;;;;;8237672;28;20027;-79
2023/02/16 01:27:15;;;;;;;12.05;6.05;;;-3.30;99.90;;;;;;8235172;28;20049;-80
2023/02/16 01:31:15;;;;;;;14.82;6.80;;;-3.40;99.90;;;;;;8302042;23;20037;-80
2023/02/16 01:35:21;;;;;;;18.00;6.43;;;-3.20;99.90;;;;;;8268457;28;20030;-80
2023/02/16 01:39:22;;;;;;;16.88;7.72;;;-3.10;99.90;;;;;;8262617;28;20030;-79
2023/02/16 01:43:30;;;;;;;29.27;13.93;;;-3.20;99.90;;;;;;8266915;28;20027;-80
2023/02/16 01:47:54;;;;;;;26.35;13.52;;;-3.20;99.90;;;;;;8266911;28;20029;-80
2023/02/16 01:52:33;;;;;;;21.83;8.35;;;-3.30;99.90;;;;;;8267765;28;20193;-80
2023/02/16 01:56:49;;;;;;;16.85;8.68;;;-2.90;99.90;;;;;;8261947;28;20034;-79
2023/02/16 02:00:57;;;;;;;20.67;7.95;;;-2.80;99.90;;;;;;8269222;28;20023;-80
2023/02/16 02:09:39;;;;;;;13.68;6.53;;;-2.80;99.90;;;;;;8267465;28;20096;-80
2023/02/16 02:14:05;;;;;;;13.88;5.32;;;-2.90;99.90;;;;;;8265872;28;20026;-80
2023/02/16 02:18:05;;;;;;;17.63;6.53;;;-3.10;99.90;;;;;;8266380;28;20026;-80
2023/02/16 02:26:56;;;;;;;13.25;5.53;;;-3.40;99.90;;;;;;8262479;28;20105;-80
2023/02/16 02:31:12;;;;;;;11.82;5.28;;;-3.60;99.90;;;;;;8265663;28;20506;-80
2023/02/16 02:35:21;;;;;;;11.77;5.72;;;-3.10;99.90;;;;;;8265447;28;20038;-80
2023/02/16 02:39:45;;;;;;;12.68;6.82;;;-3.10;99.90;;;;;;8266708;28;20042;-80
2023/02/16 02:43:59;;;;;;;17.67;7.18;;;-3.40;99.90;;;;;;8257578;23;20051;-80
2023/02/16 02:47:59;;;;;;;15.27;7.25;;;-3.20;99.90;;;;;;8237347;28;20517;-79
2023/02/16 02:52:00;;;;;;;16.13;6.57;;;-3.10;99.90;;;;;;8224649;28;20039;-79
2023/02/16 03:00:39;;;;;;;15.45;7.72;;;-2.90;99.90;;;;;;8234485;28;20041;-80
2023/02/16 03:04:41;;;;;;;18.75;6.88;;;-2.90;99.90;;;;;;8221799;28;20027;-80
2023/02/16 03:08:46;;;;;;;13.63;7.18;;;-3.00;99.90;;;;;;8234390;28;20558;-79
2023/02/16 03:12:46;;;;;;;14.27;6.90;;;-2.50;99.90;;;;;;8231252;28;20026;-79
2023/02/16 03:29:56;;;;;;;17.58;8.45;;;-2.10;99.90;;;;;;8253726;28;20046;-80
2023/02/16 03:33:57;;;;;;;14.98;7.10;;;-2.20;99.90;;;;;;8220052;28;20030;-80
2023/02/16 03:37:58;;;;;;;8.85;4.20;;;-2.30;99.90;;;;;;8242437;28;20022;-79
2023/02/16 03:41:59;;;;;;;15.80;7.07;;;-2.10;99.90;;;;;;8253629;28;20053;-79
2023/02/16 03:45:59;;;;;;;15.00;6.65;;;-1.70;99.90;;;;;;8255103;28;20034;-79
2023/02/16 03:50:00;;;;;;;11.98;5.85;;;-1.70;99.90;;;;;;8230787;28;20041;-79
2023/02/16 03:54:00;;;;;;;15.93;5.85;;;-1.80;99.90;;;;;;8231263;28;20445;-79
2023/02/16 03:58:02;;;;;;;16.83;6.72;;;-1.90;99.90;;;;;;8248387;28;20026;-80
2023/02/16 04:02:03;;;;;;;14.68;6.25;;;-2.10;99.90;;;;;;8222830;28;20050;-79
2023/02/16 04:06:04;;;;;;;17.45;6.82;;;-2.20;99.90;;;;;;8222757;28;20042;-80
2023/02/16 04:10:05;;;;;;;20.30;6.82;;;-2.40;99.90;;;;;;8248015;28;20034;-80
2023/02/16 04:14:05;;;;;;;13.30;6.63;;;-2.40;99.90;;;;;;8241516;28;20555;-80
2023/02/16 04:18:06;;;;;;;12.35;6.03;;;-2.20;99.90;;;;;;8246473;28;20042;-79
2023/02/16 04:22:07;;;;;;;22.52;6.72;;;-1.90;99.90;;;;;;8241434;28;20023;-80
2023/02/16 04:26:07;;;;;;;16.45;7.22;;;-1.80;99.90;;;;;;8217255;28;20029;-79
2023/02/16 04:30:20;;;;;;;12.27;6.45;;;-2.10;99.90;;;;;;8218944;28;20404;-80
2023/02/16 04:34:21;;;;;;;15.05;6.05;;;-2.30;99.90;;;;;;8229614;28;20042;-80
2023/02/16 04:38:21;;;;;;;16.65;6.13;;;-1.90;99.90;;;;;;8231083;28;20118;-80
2023/02/16 04:42:22;;;;;;;16.35;6.57;;;-2.00;99.90;;;;;;8227175;28;20034;-80
2023/02/16 04:46:22;;;;;;;14.43;7.38;;;-2.20;99.90;;;;;;8229051;28;20023;-80
2023/02/16 04:50:23;;;;;;;18.40;6.28;;;-2.30;99.90;;;;;;8236735;28;20023;-81
2023/02/16 04:54:23;;;;;;;9.25;4.95;;;-2.30;99.90;;;;;;8253278;28;20018;-80
2023/02/16 04:58:24;;;;;;;13.27;6.28;;;-2.30;99.90;;;;;;8261515;28;20034;-79
2023/02/16 05:02:25;;;;;;;9.80;4.80;;;-2.50;99.90;;;;;;8233501;28;20031;-80
2023/02/16 05:06:25;;;;;;;14.23;5.60;;;-2.70;99.90;;;;;;8235193;28;20029;-80
2023/02/16 05:10:26;;;;;;;13.25;6.22;;;-2.80;99.90;;;;;;8238039;28;20492;-80
2023/02/16 05:14:41;;;;;;;19.60;7.07;;;-3.00;99.90;;;;;;8251446;28;20026;-80
2023/02/16 05:18:41;;;;;;;10.40;4.65;;;-3.00;99.90;;;;;;8225474;28;20531;-80
2023/02/16 05:22:44;;;;;;;15.70;6.25;;;-3.00;99.90;;;;;;8238370;28;20037;-80
2023/02/16 05:26:45;;;;;;;16.15;6.50;;;-2.90;99.90;;;;;;8260059;28;20023;-80
2023/02/16 05:30:45;;;;;;;13.23;5.75;;;-2.80;99.90;;;;;;8233986;28;20039;-78
2023/02/16 05:34:46;;;;;;;13.93;7.15;;;-2.90;99.90;;;;;;8217832;28;20169;-79
2023/02/16 05:38:47;;;;;;;14.98;5.28;;;-2.70;99.90;;;;;;8234302;28;20034;-80
2023/02/16 05:42:52;;;;;;;14.32;5.53;;;-2.80;99.90;;;;;;8237008;28;20482;-80
2023/02/16 05:46:52;;;;;;;14.85;5.82;;;-2.70;99.90;;;;;;8222946;28;20037;-80
2023/02/16 05:50:53;;;;;;;12.45;5.65;;;-2.70;99.90;;;;;;8228134;28;20030;-81
2023/02/16 05:54:54;;;;;;;11.68;6.15;;;-2.60;99.90;;;;;;8225766;28;20495;-80
2023/02/16 05:58:55;;;;;;;9.40;5.60;;;-2.60;99.90;;;;;;8244155;28;20031;-80
2023/02/16 06:02:55;;;;;;;12.65;5.22;;;-2.30;99.90;;;;;;8223497;28;20027;-80
2023/02/16 06:06:56;;;;;;;11.43;6.18;;;-2.20;99.90;;;;;;8255954;28;20023;-80
2023/02/16 06:10:57;;;;;;;18.88;8.75;;;-2.00;99.90;;;;;;8229296;28;20114;-80
2023/02/16 06:14:57;;;;;;;21.27;7.95;;;-1.90;99.90;;;;;;8225712;28;20022;-80
2023/02/16 06:18:58;;;;;;;16.10;6.70;;;-1.90;99.90;;;;;;8233892;28;20031;-80
2023/02/16 06:22:59;;;;;;;19.15;6.97;;;-1.90;99.90;;;;;;8241485;28;20029;-80
2023/02/16 06:26:59;;;;;;;14.63;7.13;;;-1.90;99.90;;;;;;8255558;28;20406;-80
2023/02/16 06:31:00;;;;;;;17.98;7.93;;;-1.90;99.90;;;;;;8221006;28;20166;-79
2023/02/16 06:35:00;;;;;;;15.35;7.28;;;-1.70;99.90;;;;;;8223395;28;20031;-79
2023/02/16 06:39:01;;;;;;;17.00;6.40;;;-1.60;99.90;;;;;;8240658;28;20521;-79
2023/02/16 06:43:02;;;;;;;14.48;6.22;;;-1.80;99.90;;;;;;8223498;28;20034;-78
2023/02/16 06:47:02;;;;;;;12.30;6.63;;;-1.40;99.90;;;;;;8220519;28;20027;-78
2023/02/16 06:51:03;;;;;;;17.98;7.50;;;-1.50;99.90;;;;;;8217538;28;20026;-79
2023/02/16 06:55:04;;;;;;;15.57;6.55;;;-1.50;99.90;;;;;;8222881;28;20029;-79
2023/02/16 06:59:05;;;;;;;14.75;6.85;;;-1.30;99.90;;;;;;8222458;28;20113;-78
2023/02/16 07:03:05;;;;;;;18.60;9.02;;;-1.00;99.90;;;;;;8217359;28;20046;-79
2023/02/16 07:07:06;;;;;;;9.63;6.15;;;-0.80;99.90;;;;;;8263774;28;20060;-79
2023/02/16 07:11:06;;;;;;;24.45;9.38;;;-0.90;99.90;;;;;;8250482;28;20085;-78
2023/02/16 07:15:08;;;;;;;16.42;7.63;;;-0.80;99.90;;;;;;8253184;28;20027;-76
2023/02/16 07:19:10;;;;;;;17.25;8.02;;;-0.90;99.90;;;;;;8214941;28;20065;-78
2023/02/16 07:23:10;;;;;;;19.05;8.13;;;-1.00;99.90;;;;;;8222593;28;20026;-79
2023/02/16 07:27:11;;;;;;;23.70;9.48;;;-1.20;99.90;;;;;;8221978;28;20783;-79
2023/02/16 07:31:14;;;;;;;17.55;6.93;;;-1.40;99.90;;;;;;8222329;28;20023;-79
2023/02/16 07:35:14;;;;;;;18.08;7.40;;;-1.10;99.90;;;;;;8213594;28;20034;-79
2023/02/16 07:39:15;;;;;;;14.75;6.22;;;-1.10;99.90;;;;;;8229621;28;20026;-79
2023/02/16 07:43:17;;;;;;;14.30;6.63;;;-1.40;99.90;;;;;;8215058;28;20472;-79
2023/02/16 07:47:17;;;;;;;12.05;6.90;;;-1.50;99.90;;;;;;8213793;28;20083;-79
2023/02/16 07:51:27;;;;;;;17.40;7.20;;;-1.40;99.90;;;;;;8221591;28;20559;-78
2023/02/16 07:55:27;;;;;;;15.80;7.03;;;-1.40;99.90;;;;;;8214107;28;20254;-79
2023/02/16 07:59:28;;;;;;;17.33;7.43;;;-1.40;99.90;;;;;;8219767;28;20042;-79
2023/02/16 08:03:29;;;;;;;13.38;7.40;;;-1.40;99.90;;;;;;8221527;28;20030;-79
2023/02/16 08:07:29;;;;;;;17.40;6.45;;;-1.10;99.90;;;;;;8237814;28;20057;-78
2023/02/16 08:11:30;;;;;;;18.67;7.50;;;-0.80;99.90;;;;;;8228957;28;20031;-79
2023/02/16 08:15:30;;;;;;;11.40;6.07;;;-0.80;99.90;;;;;;8227448;28;20026;-79
2023/02/16 08:19:31;;;;;;;10.90;4.85;;;-0.90;99.90;;;;;;8220518;28;20046;-79
2023/02/16 08:23:31;;;;;;;12.32;6.50;;;-0.80;99.90;;;;;;8228719;28;20033;-78
2023/02/16 08:27:32;;;;;;;12.70;5.82;;;-0.70;99.90;;;;;;8220650;28;20035;-79
2023/02/16 08:31:35;;;;;;;14.02;6.75;;;-0.80;99.90;;;;;;8253489;28;20110;-78
2023/02/16 08:35:37;;;;;;;16.42;6.53;;;-0.50;99.90;;;;;;8229295;28;20034;-78
2023/02/16 08:39:38;;;;;;;14.38;6.95;;;-0.30;99.90;;;;;;8222547;28;20109;-78
2023/02/16 08:43:39;;;;;;;16.40;8.48;;;0.20;99.90;;;;;;8243438;28;20031;-78
2023/02/16 08:47:39;;;;;;;16.45;8.18;;;0.70;99.90;;;;;;8220779;28;20288;-79
2023/02/16 08:51:42;;;;;;;17.23;7.78;;;0.90;99.90;;;;;;8226363;28;20038;-78
2023/02/16 08:55:50;;;;;;;24.70;10.82;;;1.30;99.90;;;;;;8239273;28;20034;-78
2023/02/16 09:00:32;;;;;;;15.70;8.98;;;1.80;99.90;;;;;;8235783;28;20018;-78
2023/02/16 09:04:13;;;;;;;23.40;10.93;;;2.50;99.90;;;;;;8230915;28;20026;-78
2023/02/16 09:08:15;;;;;;;21.40;10.13;;;3.30;99.90;;;;;;8228462;28;20026;-77
2023/02/16 09:12:15;;;;;;;21.45;10.93;;;3.70;99.90;;;;;;8253487;28;20037;-78
2023/02/16 09:16:19;;;;;;;19.48;9.55;;;4.00;99.90;;;;;;8236177;28;20464;-78
2023/02/16 09:20:19;;;;;;;17.80;10.05;;;4.30;99.90;;;;;;8246922;28;20463;-78
2023/02/16 09:24:20;;;;;;;21.25;9.30;;;4.50;99.90;;;;;;8238789;28;20038;-78
2023/02/16 09:28:21;;;;;;;19.42;8.65;;;5.00;99.90;;;;;;8267818;28;20101;-79
2023/02/16 09:32:21;;;;;;;18.80;9.10;;;5.30;99.90;;;;;;8267973;28;20054;-77
2023/02/16 09:36:22;;;;;;;15.43;8.40;;;5.70;99.90;;;;;;8272635;28;20668;-79
2023/02/16 09:40:23;;;;;;;18.05;8.75;;;6.20;99.90;;;;;;8234063;28;20045;-78
2023/02/16 09:44:53;;;;;;;15.77;8.20;;;6.70;99.90;;;;;;8241118;28;20037;-79
2023/02/16 09:48:54;;;;;;;15.57;7.85;;;7.40;99.90;;;;;;8248081;28;20076;-80
2023/02/16 09:53:02;;;;;;;13.20;6.57;;;8.00;99.90;;;;;;8240709;28;20049;-80
2023/02/16 09:57:26;;;;;;;17.05;7.53;;;8.40;99.90;;;;;;8243091;28;20038;-80
2023/02/16 10:01:35;;;;;;;15.40;8.10;;;8.90;99.90;;;;;;8204867;28;20023;-80
2023/02/16 10:06:15;;;;;;;17.25;8.20;;;9.40;99.90;;;;;;8222469;28;20439;-80
2023/02/16 10:10:20;;;;;;;15.38;6.75;;;9.70;99.90;;;;;;8223840;28;20033;-79
2023/02/16 10:14:42;;;;;;;16.58;7.13;;;9.80;99.90;;;;;;8241865;28;20495;-80
2023/02/16 10:18:48;;;;;;;13.90;7.10;;;9.90;99.90;;;;;;8222844;28;20131;-80
2023/02/16 10:23:03;;;;;;;19.50;7.60;;;10.20;99.90;;;;;;8236194;28;20018;-79
2023/02/16 10:27:14;;;;;;;13.40;6.68;;;10.80;99.90;;;;;;8263037;28;20022;-80
2023/02/16 10:31:26;;;;;;;11.98;6.72;;;11.30;99.90;;;;;;8239662;28;20022;-79
2023/02/16 10:36:00;;;;;;;14.95;7.13;;;11.50;99.90;;;;;;8224360;28;20549;-78
2023/02/16 10:40:16;;;;;;;9.25;4.95;;;11.30;99.90;;;;;;8221953;28;20527;-80
2023/02/16 10:44:30;;;;;;;17.27;6.28;;;10.80;99.90;;;;;;8239308;28;20038;-80
2023/02/16 10:48:31;;;;;;;15.98;7.22;;;10.30;99.90;;;;;;8226912;28;20030;-80
2023/02/16 10:52:36;;;;;;;13.32;6.75;;;10.40;99.90;;;;;;8255300;28;20106;-80
2023/02/16 10:56:53;;;;;;;12.70;6.53;;;10.60;99.90;;;;;;8240203;28;20027;-80
2023/02/16 11:01:00;;;;;;;15.40;7.00;;;10.80;99.90;;;;;;8250181;28;20101;-79
2023/02/16 11:05:21;;;;;;;15.65;6.35;;;11.20;99.90;;;;;;8236645;28;20438;-80
2023/02/16 11:09:26;;;;;;;;;;;11.60;99.90;;;;;;8240067;28;20188;-79
2023/02/16 11:13:32;;;;;;;13.80;7.25;;;11.80;99.90;;;;;;8224100;28;20446;-79
2023/02/16 11:18:07;;;;;;;14.40;6.65;;;12.90;99.90;;;;;;8231402;28;20037;-80
2023/02/16 11:22:36;;;;;;;12.50;6.32;;;14.00;99.90;;;;;;8223816;28;20033;-78
2023/02/16 11:26:37;;;;;;;13.57;6.03;;;14.40;99.90;;;;;;8229370;28;20031;-80
2023/02/16 11:30:41;;;;;;;14.50;6.10;;;14.80;99.90;;;;;;8229894;28;20022;-80
2023/02/16 11:34:49;;;;;;;12.45;6.22;;;15.40;99.90;;;;;;8231625;28;20035;-80
2023/02/16 11:39:15;;;;;;;12.02;6.60;;;16.30;97.90;;;;;;8252011;28;20027;-79
2023/02/16 11:43:17;;;;;;;12.15;6.43;;;16.30;96.80;;;;;;8229473;28;20041;-79
2023/02/16 11:47:31;;;;;;;14.02;6.50;;;16.30;96.40;;;;;;8236289;28;20122;-80
2023/02/16 11:51:33;;;;;;;13.18;6.55;;;16.80;94.90;;;;;;8229313;28;20033;-80
2023/02/16 11:55:35;;;;;;;9.23;5.50;;;16.90;93.00;;;;;;8228319;28;20558;-80
2023/02/16 11:59:38;;;;;;;12.80;6.00;;;17.10;91.30;;;;;;8239079;28;20026;-80
2023/02/16 12:04:02;;;;;;;11.57;6.35;;;17.40;91.00;;;;;;8229502;28;20094;-80
2023/02/16 12:08:21;;;;;;;10.60;5.57;;;17.40;91.20;;;;;;8212326;28;20031;-81
2023/02/16 12:13:02;;;;;;;9.05;5.68;;;18.70;86.90;;;;;;8236558;28;20034;-79
2023/02/16 12:17:17;;;;;;;10.70;6.05;;;19.10;81.20;;;;;;8219792;28;20069;-80
2023/02/16 12:21:33;;;;;;;9.32;5.22;;;17.90;80.50;;;;;;8239197;28;20027;-79
2023/02/16 12:25:40;;;;;;;8.43;5.20;;;17.10;83.30;;;;;;8223253;28;20098;-80
2023/02/16 12:29:53;;;;;;;8.50;5.18;;;17.90;85.50;;;;;;8225706;28;20026;-80
2023/02/16 12:34:23;;;;;;;10.60;5.80;;;18.60;81.60;;;;;;8235023;28;20033;-80
2023/02/16 12:38:39;;;;;;;9.13;5.20;;;19.20;81.00;;;;;;8185033;28;20046;-80
2023/02/16 12:42:58;;;;;;;9.38;4.95;;;19.60;73.10;;;;;;8231351;28;20274;-80
2023/02/16 12:47:11;;;;;;;9.60;6.00;;;18.80;74.40;;;;;;8228003;28;20721;-80
2023/02/16 12:51:25;;;;;;;11.27;5.93;;;17.10;76.70;;;;;;8236348;28;20030;-80
2023/02/16 12:55:31;;;;;;;9.50;5.18;;;14.40;87.10;;;;;;8236211;28;20030;-78
2023/02/16 12:59:40;;;;;;;12.55;5.93;;;13.00;91.50;;;;;;8219418;28;20027;-80
2023/02/16 13:04:22;;;;;;;11.48;6.15;;;12.50;91.50;;;;;;8227612;28;20023;-80
2023/02/16 13:08:38;;;;;;;14.13;5.75;;;12.10;93.30;;;;;;8241936;28;20177;-79
2023/02/16 13:12:46;;;;;;;11.65;6.10;;;11.90;93.40;;;;;;8227950;28;20030;-80
2023/02/16 13:16:58;;;;;;;12.43;5.50;;;11.80;94.50;;;;;;8232474;28;20019;-80
2023/02/16 13:21:22;;;;;;;13.35;5.95;;;11.70;94.70;;;;;;8238913;28;20084;-79
2023/02/16 13:25:43;;;;;;;10.68;5.47;;;11.70;94.20;;;;;;8258443;28;20034;-79
2023/02/16 13:29:59;;;;;;;12.02;5.65;;;11.70;94.30;;;;;;8257055;28;20027;-80
2023/02/16 13:34:08;;;;;;;9.95;4.85;;;11.70;95.30;;;;;;8251613;28;20022;-80
2023/02/16 13:38:36;;;;;;;12.10;6.18;;;11.80;95.10;;;;;;8233817;28;20044;-80
2023/02/16 13:43:00;;;;;;;13.02;5.63;;;12.00;95.60;;;;;;8230286;28;20477;-80
2023/02/16 13:47:03;;;;;;;9.77;5.22;;;12.00;94.80;;;;;;8236666;28;20050;-80
2023/02/16 13:51:12;;;;;;;12.70;6.18;;;11.90;95.90;;;;;;8238182;28;20030;-78
2023/02/16 13:55:38;;;;;;;12.35;5.88;;;12.00;96.00;;;;;;8248588;28;20030;-78
2023/02/16 13:59:39;;;;;;;15.27;7.05;;;12.10;95.80;;;;;;8253950;28;20030;-80
2023/02/16 14:03:39;;;;;;;11.60;5.78;;;12.20;95.80;;;;;;8252441;28;20144;-80
2023/02/16 14:07:40;;;;;;;12.52;6.20;;;12.30;96.30;;;;;;8256384;28;20058;-80
2023/02/16 14:11:52;;;;;;;11.50;5.32;;;12.40;95.50;;;;;;8229886;28;20032;-80
2023/02/16 14:15:55;;;;;;;13.13;5.75;;;12.30;95.50;;;;;;8226348;28;20034;-79
2023/02/16 14:20:01;;;;;;;11.50;5.28;;;12.20;96.00;;;;;;8235684;28;20029;-80
2023/02/16 14:24:05;;;;;;;11.50;5.70;;;12.00;95.70;;;;;;8264964;28;20502;-79
2023/02/16 14:28:21;;;;;;;14.88;6.35;;;12.00;97.20;;;;;;8235195;28;20097;-79
2023/02/16 14:32:27;;;;;;;10.98;5.30;;;11.80;96.50;;;;;;8231352;28;20031;-79
2023/02/16 14:36:29;;;;;;;11.40;5.68;;;11.80;96.20;;;;;;8223383;28;20027;-79
2023/02/16 14:40:50;;;;;;;8.90;4.82;;;11.80;96.90;;;;;;8214733;28;20027;-79
2023/02/16 14:45:33;;;;;;;10.63;4.95;;;11.90;95.60;;;;;;8226406;28;20034;-79
2023/02/16 14:50:11;;;;;;;9.90;5.28;;;12.00;95.80;;;;;;8238482;28;20034;-80
2023/02/16 14:54:40;;;;;;;11.20;5.00;;;12.10;95.50;;;;;;8249617;28;20377;-80
2023/02/16 14:58:52;;;;;;;12.02;5.47;;;12.20;95.00;;;;;;8226378;28;20034;-80
2023/02/16 15:03:01;;;;;;;10.25;5.22;;;12.10;94.80;;;;;;8232353;28;20018;-79
2023/02/16 15:07:04;;;;;;;10.52;4.80;;;12.30;95.30;;;;;;8237102;28;20118;-79
2023/02/16 15:11:22;;;;;;;13.18;5.07;;;12.10;95.30;;;;;;8245054;28;20082;-79
2023/02/16 15:15:30;;;;;;;15.93;5.10;;;12.00;95.30;;;;;;8238035;28;20023;-79
2023/02/16 15:19:31;;;;;;;11.18;5.68;;;12.10;95.90;;;;;;8231353;28;20131;-80
2023/02/16 15:23:34;;;;;;;9.75;4.93;;;12.30;95.10;;;;;;8245032;28;20026;-79
2023/02/16 15:27:34;;;;;;;8.40;4.53;;;12.20;95.80;;;;;;8229723;28;20102;-79
2023/02/16 15:31:37;;;;;;;12.10;5.72;;;12.10;95.80;;;;;;8236109;28;20085;-80
2023/02/16 15:35:41;;;;;;;11.60;5.30;;;11.90;96.00;;;;;;8231980;28;20022;-80
2023/02/16 15:39:42;;;;;;;14.27;5.60;;;11.70;96.90;;;;;;8237232;28;20022;-80
2023/02/16 15:43:42;;;;;;;11.82;5.93;;;11.60;96.30;;;;;;8245539;28;20034;-79
2023/02/16 15:47:43;;;;;;;10.98;5.63;;;11.40;97.20;;;;;;8235444;28;20034;-78
2023/02/16 15:51:43;;;;;;;9.60;5.25;;;11.10;97.60;;;;;;8231067;28;20495;-80
2023/02/16 15:55:46;;;;;;;9.50;4.82;;;11.20;97.70;;;;;;8252389;28;20042;-78
2023/02/16 15:59:50;;;;;;;12.05;4.70;;;10.90;98.70;;;;;;8229547;28;20121;-80
2023/02/16 16:03:51;;;;;;;8.07;4.70;;;10.70;97.50;;;;;;8230320;28;20023;-78
2023/02/16 16:07:52;;;;;;;6.80;4.22;;;10.60;97.70;;;;;;8222606;28;20077;-80
2023/02/16 16:11:57;;;;;;;7.97;3.28;;;10.40;97.20;;;;;;8234966;28;20438;-78
2023/02/16 16:16:01;;;;;;;8.05;3.75;;;10.30;96.00;;;;;;8241371;28;20037;-80
2023/02/16 16:20:20;;;;;;;5.72;3.17;;;10.20;96.40;;;;;;8226962;28;20495;-79
2023/02/16 16:24:48;;;;;;;5.03;3.10;;;10.00;96.00;;;;;;8211046;28;20058;-80
2023/02/16 16:28:49;;;;;;;8.10;4.00;;;9.70;97.20;;;;;;8214191;28;20039;-80
2023/02/16 16:32:59;;;;;;;14.60;3.33;;;9.60;96.90;;;;;;8216919;28;20034;-79
2023/02/16 16:37:05;;;;;;;7.43;3.70;;;9.60;96.20;;;;;;8212458;28;20034;-78
2023/02/16 16:41:24;;;;;;;5.00;3.08;;;9.40;97.30;;;;;;8224446;28;20038;-78
2023/02/16 16:45:40;;;;;;;9.02;3.85;;;9.40;97.20;;;;;;8221696;28;20026;-78
2023/02/16 16:49:55;;;;;;;9.07;3.80;;;9.30;97.70;;;;;;8229646;28;20046;-80
2023/02/16 16:54:04;;;;;;;7.80;3.97;;;9.20;97.70;;;;;;8236310;28;20023;-78
2023/02/16 16:58:07;;;;;;;10.57;3.92;;;9.10;98.00;;;;;;8223608;28;20668;-78
2023/02/16 17:02:09;;;;;;;8.90;4.05;;;8.80;98.70;;;;;;8234237;28;20035;-79
2023/02/16 17:06:12;;;;;;;7.90;4.65;;;8.70;98.90;;;;;;8241822;28;20084;-79
2023/02/16 17:10:14;;;;;;;10.80;4.07;;;8.60;99.40;;;;;;8241546;28;20049;-78
2023/02/16 17:14:16;;;;;;;9.60;4.90;;;8.40;99.90;;;;;;8223131;28;20034;-85
2023/02/16 17:18:18;;;;;;;9.93;4.63;;;8.20;99.90;;;;;;8239467;28;20041;-85
2023/02/16 17:22:20;;;;;;;9.95;5.65;;;8.10;99.90;;;;;;8238192;28;20503;-84
2023/02/16 17:26:21;;;;;;;12.27;5.97;;;8.00;99.90;;;;;;8231620;28;20086;-84
2023/02/16 17:30:22;;;;;;;13.48;6.18;;;8.10;99.90;;;;;;8241493;28;20034;-85
2023/02/16 17:34:28;;;;;;;11.48;6.05;;;8.10;99.90;;;;;;8224288;28;20097;-83
2023/02/16 17:38:28;;;;;;;12.77;5.95;;;8.10;99.90;;;;;;8232866;28;20033;-84
2023/02/16 17:42:29;;;;;;;13.68;6.35;;;8.20;99.90;;;;;;8256956;28;20027;-78
2023/02/16 17:46:30;;;;;;;13.65;5.75;;;8.30;99.90;;;;;;8208996;28;20436;-79
2023/02/16 17:50:31;;;;;;;13.05;6.63;;;8.40;99.90;;;;;;8218256;28;20041;-79
2023/02/16 17:54:32;;;;;;;14.75;6.63;;;8.10;99.90;;;;;;8236643;28;20031;-79
2023/02/16 17:58:33;;;;;;;16.40;6.18;;;8.30;99.90;;;;;;8202869;28;20024;-79
2023/02/16 18:02:33;;;;;;;17.55;7.43;;;8.20;99.90;;;;;;8224169;28;20113;-78
2023/02/16 18:06:34;;;;;;;14.85;6.57;;;8.20;99.90;;;;;;8232236;28;20518;-80
2023/02/16 18:10:47;;;;;;;14.90;6.25;;;8.30;99.90;;;;;;8213511;28;20042;-79
2023/02/16 18:14:48;;;;;;;14.65;6.65;;;8.30;99.90;;;;;;8217007;28;20125;-78
2023/02/16 18:18:48;;;;;;;14.40;6.95;;;8.30;99.90;;;;;;8190405;28;20031;-79
2023/02/16 18:22:49;;;;;;;16.10;7.32;;;8.00;99.90;;;;;;8213561;28;20081;-79
2023/02/16 18:26:50;;;;;;;12.32;6.88;;;7.90;99.90;;;;;;8209297;28;20026;-80
2023/02/16 18:30:51;;;;;;;15.50;7.13;;;7.70;99.90;;;;;;8223841;28;20023;-78
2023/02/16 18:34:52;;;;;;;12.38;6.57;;;7.40;99.90;;;;;;8208970;28;20050;-80
2023/02/16 18:38:52;;;;;;;15.93;7.75;;;7.20;99.90;;;;;;8214756;28;20030;-79
2023/02/16 18:42:55;;;;;;;16.73;7.28;;;7.20;99.90;;;;;;8229180;28;20590;-80
2023/02/16 18:46:56;;;;;;;17.83;7.50;;;7.30;99.90;;;;;;8258585;28;20051;-77
2023/02/16 18:50:56;;;;;;;14.15;7.05;;;7.20;99.90;;;;;;8215172;28;20050;-79
2023/02/16 18:54:57;;;;;;;15.60;6.78;;;7.30;99.90;;;;;;8223020;28;20509;-78
2023/02/16 18:58:58;;;;;;;16.25;7.60;;;7.40;99.90;;;;;;8233523;28;20041;-78
2023/02/16 19:02:58;;;;;;;13.85;6.78;;;7.40;99.90;;;;;;8212064;28;20411;-79
2023/02/16 19:06:59;;;;;;;14.48;6.80;;;7.40;99.90;;;;;;8241141;28;20427;-79
2023/02/16 19:10:59;;;;;;;14.10;6.63;;;7.40;99.90;;;;;;8220304;28;20023;-79
2023/02/16 19:15:00;;;;;;;12.32;6.18;;;7.60;99.90;;;;;;8224309;28;20037;-78
2023/02/16 19:19:00;;;;;;;17.05;7.47;;;7.70;99.90;;;;;;8222108;28;20046;-79
2023/02/16 19:23:01;;;;;;;17.23;8.30;;;7.50;99.90;;;;;;8213212;28;20041;-80
2023/02/16 19:27:01;;;;;;;19.75;7.65;;;7.70;99.90;;;;;;8232255;28;20044;-79
2023/02/16 19:31:05;;;;;;;16.83;8.80;;;7.50;99.90;;;;;;8217943;28;20080;-80
2023/02/16 19:35:10;;;;;;;16.20;8.55;;;7.60;99.90;;;;;;8240758;28;20081;-80
2023/02/16 19:39:11;;;;;;;20.08;9.20;;;7.60;99.90;;;;;;8232965;28;20088;-79
2023/02/16 19:43:12;;;;;;;17.42;7.95;;;7.80;99.90;;;;;;8234405;28;20407;-80
2023/02/16 19:47:12;;;;;;;12.85;6.28;;;7.90;99.90;;;;;;8233125;28;20038;-80
2023/02/16 19:51:14;;;;;;;16.23;7.55;;;7.70;99.90;;;;;;8231765;28;20031;-79
2023/02/16 19:55:14;;;;;;;16.77;7.78;;;7.60;99.90;;;;;;8237655;28;20030;-80
2023/02/16 19:59:15;;;;;;;16.73;7.82;;;7.70;99.90;;;;;;8246820;28;20037;-79
2023/02/16 20:03:16;;;;;;;16.73;8.15;;;7.70;99.90;;;;;;8218675;28;20203;-79
2023/02/16 20:07:17;;;;;;;15.57;6.88;;;7.90;99.90;;;;;;8213911;28;20291;-79
2023/02/16 20:11:19;;;;;;;11.25;6.45;;;8.10;99.90;;;;;;8261301;28;20062;-78
2023/02/16 20:15:19;;;;;;;13.57;6.95;;;8.10;99.90;;;;;;8248171;28;20077;-79
2023/02/16 20:19:20;;;;;;;17.65;7.57;;;8.10;99.90;;;;;;8226871;28;20034;-78
2023/02/16 20:23:20;;;;;;;14.93;7.22;;;8.10;99.90;;;;;;8229880;28;20037;-79
2023/02/16 20:27:21;;;;;;;18.42;7.57;;;8.00;99.90;;;;;;8211180;28;20034;-79
2023/02/16 20:31:28;;;;;;;16.38;7.45;;;8.10;99.90;;;;;;8212634;28;20218;-78
2023/02/16 20:35:29;;;;;;;12.85;6.80;;;8.00;99.90;;;;;;8209749;28;20034;-79
2023/02/16 20:39:29;;;;;;;15.32;6.90;;;7.90;99.90;;;;;;8209309;28;20049;-79
2023/02/16 20:43:31;;;;;;;15.15;7.03;;;7.80;99.90;;;;;;8212922;28;20384;-78
2023/02/16 20:47:31;;;;;;;11.75;6.72;;;8.10;99.90;;;;;;8215205;28;20062;-79
2023/02/16 20:51:33;;;;;;;14.18;6.35;;;8.10;99.90;;;;;;8210567;28;20034;-79
2023/02/16 20:55:33;;;;;;;13.73;6.68;;;8.10;99.90;;;;;;8221577;28;20027;-79
2023/02/16 20:59:35;;;;;;;12.48;6.43;;;8.20;99.90;;;;;;8250983;28;20062;-79
2023/02/16 21:03:36;;;;;;;13.55;5.97;;;8.30;99.90;;;;;;8217302;28;20114;-79
2023/02/16 21:07:37;;;;;;;14.32;6.38;;;8.40;99.90;;;;;;8223905;28;20042;-79
2023/02/16 21:11:38;;;;;;;15.38;6.75;;;8.20;99.90;;;;;;8233495;28;20553;-79
2023/02/16 21:15:38;;;;;;;13.40;6.18;;;8.20;99.90;;;;;;8225572;28;20038;-79
2023/02/16 21:19:39;;;;;;;12.90;7.05;;;8.20;99.90;;;;;;8212910;28;20034;-79
2023/02/16 21:23:41;;;;;;;15.23;6.63;;;8.40;99.90;;;;;;8224680;28;20030;-80
2023/02/16 21:27:42;;;;;;;12.40;6.32;;;8.40;99.90;;;;;;8228396;28;20146;-80
2023/02/16 21:31:42;;;;;;;14.27;6.13;;;8.30;99.90;;;;;;8240256;28;20030;-80
2023/02/16 21:35:43;;;;;;;15.48;6.82;;;8.20;99.90;;;;;;8221458;28;20019;-80
2023/02/16 21:44:09;;;;;;;11.30;5.28;;;8.20;99.90;;;;;;8247164;28;20062;-80